Time;durP1;ratioP1;P1;durP2;ratioP2;P2;SDS_P1;SDS_P2;PMS_P1;PMS_P2;Temp;Humidity;BMP_temperature;BMP_pressure;BME280_temperature;BME280_humidity;BME280_pressure;Samples;Min_cycle;Max_cycle;Signal;HPM_P1;HPM_P2
2021/10/08 00:01:39;;;;;;;247.75;41.80;;;;;;;;;;5013003;28;20149;-67
2021/10/08 00:04:05;;;;;;;222.90;40.53;;;;;;;;;;5012440;28;20038;-67
2021/10/08 00:06:32;;;;;;;131.98;38.53;;;;;;;;;;5013143;28;20410;-67
2021/10/08 00:08:58;;;;;;;226.57;40.78;;;;;;;;;;5012728;28;20081;-67
2021/10/08 00:11:24;;;;;;;237.77;39.63;;;;;;;;;;4997611;28;20038;-67
2021/10/08 00:13:51;;;;;;;171.95;39.33;;;;;;;;;;4998717;28;20404;-67
2021/10/08 00:16:17;;;;;;;177.00;38.63;;;;;;;;;;5011151;28;20042;-67
2021/10/08 00:18:43;;;;;;;183.25;36.97;;;;;;;;;;4987097;28;20050;-67
2021/10/08 00:21:09;;;;;;;157.85;36.10;;;;;;;;;;5000209;28;20042;-67
2021/10/08 00:23:36;;;;;;;159.55;36.58;;;;;;;;;;5011376;28;20046;-67
2021/10/08 00:26:02;;;;;;;178.07;36.67;;;;;;;;;;4995939;28;20124;-67
2021/10/08 00:28:28;;;;;;;247.70;36.70;;;;;;;;;;5008935;28;20141;-67
2021/10/08 00:30:55;;;;;;;221.02;36.28;;;;;;;;;;4994146;28;20034;-67
2021/10/08 00:33:21;;;;;;;250.43;37.25;;;;;;;;;;4992612;28;20048;-67
2021/10/08 00:35:47;;;;;;;241.80;38.90;;;;;;;;;;4989655;28;20049;-67
2021/10/08 00:38:14;;;;;;;255.95;41.65;;;;;;;;;;4989632;28;20050;-67
2021/10/08 00:40:42;;;;;;;237.25;43.20;;;;;;;;;;5012334;28;20160;-67
2021/10/08 00:43:09;;;;;;;223.02;41.70;;;;;;;;;;5012251;28;20045;-67
2021/10/08 00:45:36;;;;;;;183.20;41.22;;;;;;;;;;5010458;28;20071;-67
2021/10/08 00:48:04;;;;;;;271.63;42.20;;;;;;;;;;5011084;28;20058;-67
2021/10/08 00:50:31;;;;;;;217.43;40.63;;;;;;;;;;4994508;28;20481;-67
2021/10/08 00:52:57;;;;;;;256.83;42.42;;;;;;;;;;4988625;28;20476;-67
2021/10/08 00:55:24;;;;;;;265.05;43.45;;;;;;;;;;5007379;28;20113;-67
2021/10/08 00:57:50;;;;;;;267.33;42.50;;;;;;;;;;4992669;28;20054;-67
2021/10/08 01:00:18;;;;;;;225.73;41.10;;;;;;;;;;4991803;28;20397;-67
2021/10/08 01:02:44;;;;;;;177.80;41.20;;;;;;;;;;5011846;28;20488;-67
2021/10/08 01:05:11;;;;;;;216.30;44.10;;;;;;;;;;4998052;28;20046;-67
2021/10/08 01:07:37;;;;;;;216.15;43.30;;;;;;;;;;5010416;28;20053;-67
2021/10/08 01:10:06;;;;;;;281.73;47.15;;;;;;;;;;5012025;28;20130;-67
2021/10/08 01:12:33;;;;;;;296.08;46.55;;;;;;;;;;4993266;28;20485;-67
2021/10/08 01:14:59;;;;;;;253.23;43.53;;;;;;;;;;5011825;28;20490;-67
2021/10/08 01:17:25;;;;;;;284.88;43.50;;;;;;;;;;4993703;28;20048;-67
2021/10/08 01:19:52;;;;;;;244.48;40.83;;;;;;;;;;4993612;28;20552;-67
2021/10/08 01:22:18;;;;;;;176.02;38.20;;;;;;;;;;4991343;28;20042;-67
2021/10/08 01:24:45;;;;;;;220.32;41.85;;;;;;;;;;4993775;28;20608;-67
2021/10/08 01:27:11;;;;;;;312.70;42.30;;;;;;;;;;4994624;28;20144;-67
2021/10/08 01:29:54;;;;;;;356.13;45.60;;;;;;;;;;4993760;28;20120;-67
2021/10/08 01:32:23;;;;;;;321.08;43.33;;;;;;;;;;4994042;28;20415;-67
2021/10/08 01:34:50;;;;;;;386.58;47.00;;;;;;;;;;5007009;28;20069;-67
2021/10/08 01:37:17;;;;;;;277.95;43.90;;;;;;;;;;4997571;28;20407;-67
2021/10/08 01:39:43;;;;;;;275.33;45.25;;;;;;;;;;5010553;28;20034;-66
2021/10/08 01:42:10;;;;;;;363.23;56.65;;;;;;;;;;5005535;28;20046;-67
2021/10/08 01:44:37;;;;;;;405.42;51.05;;;;;;;;;;5011125;28;20524;-67
2021/10/08 01:47:04;;;;;;;394.20;49.65;;;;;;;;;;5010243;28;20048;-67
2021/10/08 01:49:30;;;;;;;258.42;45.72;;;;;;;;;;5006588;28;20045;-67
2021/10/08 01:51:56;;;;;;;299.75;48.10;;;;;;;;;;5007038;28;20076;-67
2021/10/08 01:54:22;;;;;;;208.27;43.78;;;;;;;;;;4993317;28;20045;-67
2021/10/08 01:56:48;;;;;;;297.83;47.67;;;;;;;;;;5007460;28;20046;-67
2021/10/08 01:59:15;;;;;;;353.27;47.30;;;;;;;;;;4990473;28;20054;-67
2021/10/08 02:01:42;;;;;;;416.73;48.10;;;;;;;;;;4989450;28;20530;-67
2021/10/08 02:04:08;;;;;;;412.38;49.45;;;;;;;;;;5008189;28;20045;-67
2021/10/08 02:06:35;;;;;;;267.58;45.08;;;;;;;;;;4992602;28;20049;-67
2021/10/08 02:09:01;;;;;;;313.48;46.17;;;;;;;;;;5009263;28;20042;-67
2021/10/08 02:11:27;;;;;;;463.35;48.35;;;;;;;;;;5006646;28;20397;-67
2021/10/08 02:13:54;;;;;;;385.35;48.08;;;;;;;;;;4986731;28;20046;-67
2021/10/08 02:16:20;;;;;;;374.23;45.67;;;;;;;;;;4988314;28;20129;-67
2021/10/08 02:18:48;;;;;;;401.52;45.72;;;;;;;;;;5008289;28;20050;-67
2021/10/08 02:21:14;;;;;;;297.83;41.72;;;;;;;;;;5007193;28;20041;-67
2021/10/08 02:23:40;;;;;;;378.98;42.53;;;;;;;;;;4987569;28;20050;-67
2021/10/08 02:26:06;;;;;;;238.88;39.38;;;;;;;;;;5005253;28;20038;-67
2021/10/08 02:28:32;;;;;;;315.25;37.88;;;;;;;;;;4999883;28;20048;-67
2021/10/08 02:30:58;;;;;;;346.90;39.83;;;;;;;;;;5007124;28;20115;-67
2021/10/08 02:33:25;;;;;;;312.88;37.13;;;;;;;;;;4994404;28;20057;-67
2021/10/08 02:35:51;;;;;;;243.63;34.47;;;;;;;;;;5007138;28;20073;-67
2021/10/08 02:38:18;;;;;;;281.42;36.30;;;;;;;;;;5005612;28;20046;-67
2021/10/08 02:40:44;;;;;;;282.70;34.95;;;;;;;;;;5006431;28;20030;-67
2021/10/08 02:43:11;;;;;;;232.65;32.88;;;;;;;;;;4997971;28;20054;-67
2021/10/08 02:45:37;;;;;;;349.50;36.33;;;;;;;;;;4998932;28;20042;-67
2021/10/08 02:48:03;;;;;;;273.23;33.55;;;;;;;;;;4989055;28;20058;-67
2021/10/08 02:50:30;;;;;;;219.38;34.53;;;;;;;;;;4987966;28;20038;-67
2021/10/08 02:52:56;;;;;;;296.65;35.80;;;;;;;;;;5010376;28;20057;-67
2021/10/08 02:55:22;;;;;;;324.67;34.88;;;;;;;;;;5010867;28;20033;-67
2021/10/08 02:57:49;;;;;;;339.45;36.67;;;;;;;;;;5012082;28;20054;-67
2021/10/08 03:00:15;;;;;;;278.65;33.05;;;;;;;;;;5013681;28;20383;-67
2021/10/08 03:02:42;;;;;;;341.27;36.85;;;;;;;;;;4996055;28;20129;-67
2021/10/08 03:05:09;;;;;;;309.90;39.13;;;;;;;;;;5010569;28;20141;-67
2021/10/08 03:07:35;;;;;;;248.63;30.95;;;;;;;;;;5009179;28;20513;-67
2021/10/08 03:10:01;;;;;;;307.02;33.47;;;;;;;;;;5010451;28;20041;-67
2021/10/08 03:12:27;;;;;;;198.00;30.45;;;;;;;;;;4993284;28;20060;-67
2021/10/08 03:14:54;;;;;;;273.80;31.38;;;;;;;;;;5009097;28;20038;-67
2021/10/08 03:17:20;;;;;;;223.30;30.27;;;;;;;;;;4996040;28;20129;-67
2021/10/08 03:19:46;;;;;;;315.83;32.83;;;;;;;;;;5013516;28;20394;-67
2021/10/08 03:22:12;;;;;;;182.48;27.45;;;;;;;;;;5012403;28;20358;-67
2021/10/08 03:24:38;;;;;;;276.48;32.40;;;;;;;;;;5013878;28;20057;-67
2021/10/08 03:27:04;;;;;;;235.25;29.40;;;;;;;;;;4995576;28;20042;-67
2021/10/08 03:29:31;;;;;;;226.27;28.23;;;;;;;;;;5013678;28;20080;-67
2021/10/08 03:31:57;;;;;;;141.75;25.25;;;;;;;;;;5013872;28;20042;-67
2021/10/08 03:34:23;;;;;;;130.32;24.35;;;;;;;;;;5009366;28;20045;-67
2021/10/08 03:36:51;;;;;;;235.05;24.13;;;;;;;;;;5011486;28;20069;-67
2021/10/08 03:39:21;;;;;;;370.02;27.63;;;;;;;;;;5007528;28;20075;-67
2021/10/08 03:41:48;;;;;;;361.98;27.67;;;;;;;;;;5012928;28;20038;-67
2021/10/08 03:44:15;;;;;;;390.35;28.27;;;;;;;;;;5012692;28;20378;-66
2021/10/08 03:46:46;;;;;;;316.25;26.20;;;;;;;;;;4995226;28;20045;-67
2021/10/08 03:49:15;;;;;;;352.95;25.17;;;;;;;;;;5010804;28;20081;-67
2021/10/08 03:51:42;;;;;;;222.20;22.10;;;;;;;;;;5008760;28;20124;-67
2021/10/08 03:54:09;;;;;;;295.27;23.38;;;;;;;;;;5011605;28;20046;-67
2021/10/08 03:56:35;;;;;;;350.98;25.30;;;;;;;;;;5011176;28;20057;-67
2021/10/08 03:59:01;;;;;;;344.13;27.48;;;;;;;;;;5013418;28;20088;-67
2021/10/08 04:01:29;;;;;;;313.60;23.30;;;;;;;;;;5011321;28;20452;-67
2021/10/08 04:03:56;;;;;;;434.38;25.63;;;;;;;;;;5009487;28;20054;-67
2021/10/08 04:06:22;;;;;;;289.95;23.08;;;;;;;;;;5009316;28;20107;-67
2021/10/08 04:08:48;;;;;;;296.02;23.35;;;;;;;;;;5000167;28;20155;-66
2021/10/08 04:11:15;;;;;;;302.13;23.88;;;;;;;;;;5009245;28;20121;-67
2021/10/08 04:13:41;;;;;;;344.00;24.92;;;;;;;;;;5010646;28;20485;-67
2021/10/08 04:16:07;;;;;;;336.52;26.42;;;;;;;;;;5012379;28;20045;-67
2021/10/08 04:18:33;;;;;;;308.60;26.63;;;;;;;;;;4992217;28;20050;-67
2021/10/08 04:21:00;;;;;;;434.92;29.75;;;;;;;;;;5012690;28;20080;-67
2021/10/08 04:23:26;;;;;;;382.17;25.88;;;;;;;;;;5008205;28;20042;-67
2021/10/08 04:25:53;;;;;;;334.20;25.33;;;;;;;;;;5003781;28;20069;-67
2021/10/08 04:28:19;;;;;;;310.35;25.10;;;;;;;;;;5007294;28;20149;-67
2021/10/08 04:30:45;;;;;;;396.80;25.95;;;;;;;;;;5006055;28;20107;-66
2021/10/08 04:33:19;;;;;;;335.50;26.60;;;;;;;;;;5011261;28;20038;-67
2021/10/08 04:35:46;;;;;;;278.65;23.23;;;;;;;;;;5005791;28;20581;-67
2021/10/08 04:38:13;;;;;;;363.83;26.13;;;;;;;;;;4991034;28;20040;-67
2021/10/08 04:40:39;;;;;;;397.27;29.67;;;;;;;;;;4994845;28;20121;-67
2021/10/08 04:43:05;;;;;;;387.77;25.08;;;;;;;;;;5006763;28;20049;-67
2021/10/08 04:45:31;;;;;;;407.30;29.45;;;;;;;;;;4986204;28;20485;-67
2021/10/08 04:47:58;;;;;;;425.88;26.60;;;;;;;;;;5008338;28;20039;-67
2021/10/08 04:50:24;;;;;;;322.73;23.63;;;;;;;;;;4993971;28;20093;-66
2021/10/08 04:52:51;;;;;;;328.27;23.77;;;;;;;;;;5004369;28;20424;-66
2021/10/08 04:55:17;;;;;;;287.90;21.80;;;;;;;;;;5011343;28;20046;-67
2021/10/08 04:57:43;;;;;;;340.95;22.52;;;;;;;;;;4993331;28;20520;-66
2021/10/08 05:00:10;;;;;;;300.40;21.08;;;;;;;;;;5011690;28;20046;-66
2021/10/08 05:02:36;;;;;;;421.42;23.25;;;;;;;;;;5008041;28;20418;-66
2021/10/08 05:05:03;;;;;;;326.75;21.83;;;;;;;;;;5003362;28;20037;-66
2021/10/08 05:07:29;;;;;;;407.73;25.23;;;;;;;;;;5006799;28;20060;-67
2021/10/08 05:09:55;;;;;;;398.88;23.98;;;;;;;;;;4992868;28;20135;-66
2021/10/08 05:12:25;;;;;;;342.73;20.85;;;;;;;;;;5009346;28;20042;-66
2021/10/08 05:14:52;;;;;;;413.20;23.95;;;;;;;;;;5010924;28;20050;-66
2021/10/08 05:17:18;;;;;;;389.90;23.92;;;;;;;;;;4993115;28;20996;-66
2021/10/08 05:19:44;;;;;;;251.73;20.05;;;;;;;;;;5009929;28;20034;-66
2021/10/08 05:22:11;;;;;;;282.98;21.73;;;;;;;;;;5010483;28;20079;-66
2021/10/08 05:24:37;;;;;;;275.00;19.42;;;;;;;;;;5010612;28;20124;-66
2021/10/08 05:27:03;;;;;;;221.45;18.58;;;;;;;;;;4990900;28;20521;-66
2021/10/08 05:29:29;;;;;;;326.30;19.92;;;;;;;;;;5010675;28;20069;-68
2021/10/08 05:31:55;;;;;;;227.43;18.02;;;;;;;;;;5010296;28;20042;-66
2021/10/08 05:34:21;;;;;;;263.40;17.95;;;;;;;;;;5009861;28;20053;-67
2021/10/08 05:36:49;;;;;;;230.35;17.92;;;;;;;;;;5010208;28;20042;-67
2021/10/08 05:39:17;;;;;;;289.67;18.17;;;;;;;;;;4991981;28;20045;-67
2021/10/08 05:41:43;;;;;;;193.52;16.38;;;;;;;;;;5010583;28;20485;-65
2021/10/08 05:44:09;;;;;;;285.85;19.15;;;;;;;;;;5010915;28;20038;-66
2021/10/08 05:46:35;;;;;;;347.75;19.95;;;;;;;;;;5011065;28;20041;-65
2021/10/08 05:49:02;;;;;;;348.30;20.13;;;;;;;;;;4992686;28;20128;-66
2021/10/08 05:51:28;;;;;;;281.58;19.30;;;;;;;;;;5011108;28;20153;-65
2021/10/08 05:53:54;;;;;;;305.38;20.05;;;;;;;;;;5010347;28;20095;-65
2021/10/08 05:56:20;;;;;;;323.63;19.13;;;;;;;;;;4993363;28;20050;-66
2021/10/08 05:58:46;;;;;;;266.33;18.40;;;;;;;;;;5007733;28;20053;-66
2021/10/08 06:01:12;;;;;;;372.98;20.52;;;;;;;;;;5010572;28;20557;-66
2021/10/08 06:03:38;;;;;;;236.70;19.98;;;;;;;;;;5025698;28;20184;-66
2021/10/08 06:06:05;;;;;;;174.05;17.92;;;;;;;;;;5001699;28;20053;-66
2021/10/08 06:08:31;;;;;;;290.05;19.23;;;;;;;;;;5003575;28;20056;-66
2021/10/08 06:10:57;;;;;;;247.13;17.90;;;;;;;;;;5005787;28;20405;-66
2021/10/08 06:13:24;;;;;;;322.60;21.23;;;;;;;;;;5007218;28;20045;-66
2021/10/08 06:15:51;;;;;;;291.45;18.98;;;;;;;;;;5001909;28;20046;-66
2021/10/08 06:18:18;;;;;;;278.10;18.38;;;;;;;;;;5005130;28;20513;-66
2021/10/08 06:20:44;;;;;;;225.32;16.73;;;;;;;;;;5004787;28;20034;-66
2021/10/08 06:23:10;;;;;;;303.08;21.40;;;;;;;;;;5005925;28;20045;-66
2021/10/08 06:25:36;;;;;;;169.30;15.68;;;;;;;;;;4996985;28;20057;-66
2021/10/08 06:28:02;;;;;;;170.60;15.63;;;;;;;;;;4999084;28;20057;-66
2021/10/08 06:30:28;;;;;;;185.38;16.92;;;;;;;;;;5001273;28;20385;-67
2021/10/08 06:32:54;;;;;;;168.75;16.83;;;;;;;;;;4996766;28;20129;-66
2021/10/08 06:35:21;;;;;;;282.15;21.15;;;;;;;;;;5000050;28;20379;-66
2021/10/08 06:37:47;;;;;;;240.30;19.67;;;;;;;;;;5006483;28;20054;-66
2021/10/08 06:40:13;;;;;;;259.17;19.08;;;;;;;;;;5008496;28;20121;-66
2021/10/08 06:42:40;;;;;;;199.80;18.10;;;;;;;;;;4999630;28;20133;-65
2021/10/08 06:45:06;;;;;;;255.55;19.20;;;;;;;;;;5005857;28;20068;-65
2021/10/08 06:47:33;;;;;;;168.75;17.90;;;;;;;;;;5008935;28;20129;-66
2021/10/08 06:49:59;;;;;;;202.80;16.90;;;;;;;;;;5011045;28;20128;-66
2021/10/08 06:52:25;;;;;;;173.43;17.63;;;;;;;;;;5009534;28;20099;-66
2021/10/08 06:54:51;;;;;;;183.70;17.75;;;;;;;;;;5010748;28;20401;-66
2021/10/08 06:57:18;;;;;;;277.58;18.15;;;;;;;;;;5008550;28;20050;-66
2021/10/08 06:59:44;;;;;;;220.65;19.67;;;;;;;;;;5010168;28;20402;-66
2021/10/08 07:02:10;;;;;;;110.20;16.27;;;;;;;;;;5010773;28;20088;-66
2021/10/08 07:04:36;;;;;;;361.98;24.38;;;;;;;;;;5010056;28;20038;-66
2021/10/08 07:07:02;;;;;;;243.52;19.13;;;;;;;;;;5010425;28;20059;-66
2021/10/08 07:09:29;;;;;;;221.32;19.90;;;;;;;;;;5010618;28;20049;-66
2021/10/08 07:11:55;;;;;;;160.48;19.05;;;;;;;;;;5008381;28;20425;-66
2021/10/08 07:14:21;;;;;;;137.18;17.92;;;;;;;;;;5010632;28;20050;-66
2021/10/08 07:16:47;;;;;;;226.23;20.55;;;;;;;;;;5010583;28;20042;-66
2021/10/08 07:19:15;;;;;;;327.45;22.70;;;;;;;;;;5009937;28;20136;-66
2021/10/08 07:21:42;;;;;;;113.13;18.77;;;;;;;;;;5010255;28;20058;-66
2021/10/08 07:24:09;;;;;;;99.63;17.98;;;;;;;;;;5010215;28;20133;-66
2021/10/08 07:26:35;;;;;;;177.43;22.80;;;;;;;;;;5008566;28;20508;-66
2021/10/08 07:29:01;;;;;;;212.38;23.90;;;;;;;;;;5007966;28;20041;-66
2021/10/08 07:31:28;;;;;;;65.97;19.02;;;;;;;;;;5010644;28;20157;-66
2021/10/08 07:33:54;;;;;;;154.30;19.15;;;;;;;;;;5009644;28;20042;-67
2021/10/08 07:36:21;;;;;;;164.02;21.27;;;;;;;;;;5009850;28;20121;-68
2021/10/08 07:38:48;;;;;;;162.60;22.20;;;;;;;;;;5013572;28;20090;-67
2021/10/08 07:41:14;;;;;;;137.07;21.58;;;;;;;;;;5013255;28;20042;-67
2021/10/08 07:43:40;;;;;;;127.20;23.20;;;;;;;;;;5014151;28;20077;-67
2021/10/08 07:46:07;;;;;;;136.02;23.70;;;;;;;;;;5012242;28;20041;-67
2021/10/08 07:48:34;;;;;;;91.22;23.90;;;;;;;;;;5012194;28;20084;-67
2021/10/08 07:51:00;;;;;;;110.38;22.13;;;;;;;;;;5013674;28;20053;-67
2021/10/08 07:53:27;;;;;;;72.13;23.30;;;;;;;;;;5012735;28;20054;-67
2021/10/08 07:55:53;;;;;;;121.32;23.23;;;;;;;;;;5011938;28;20048;-67
2021/10/08 07:58:26;;;;;;;146.50;25.77;;;;;;;;;;5011845;28;20127;-67
2021/10/08 08:00:53;;;;;;;133.90;22.80;;;;;;;;;;5011103;28;20565;-67
2021/10/08 08:03:19;;;;;;;136.60;24.42;;;;;;;;;;5012231;28;20126;-67
2021/10/08 08:05:45;;;;;;;99.47;25.45;;;;;;;;;;5027674;28;20069;-67
2021/10/08 08:08:12;;;;;;;115.38;26.42;;;;;;;;;;5011838;28;20057;-67
2021/10/08 08:10:38;;;;;;;89.38;24.15;;;;;;;;;;5013450;28;20073;-67
2021/10/08 08:13:05;;;;;;;80.85;24.95;;;;;;;;;;5013388;28;20480;-67
2021/10/08 08:15:31;;;;;;;131.40;26.60;;;;;;;;;;5010972;28;20132;-67
2021/10/08 08:17:57;;;;;;;119.53;28.65;;;;;;;;;;5013351;28;20353;-67
2021/10/08 08:20:23;;;;;;;77.53;27.52;;;;;;;;;;5012787;28;20045;-67
2021/10/08 08:22:49;;;;;;;66.85;26.15;;;;;;;;;;5012007;28;20127;-67
2021/10/08 08:25:16;;;;;;;101.53;30.73;;;;;;;;;;5013122;28;20184;-67
2021/10/08 08:27:42;;;;;;;87.95;30.40;;;;;;;;;;5012910;28;20053;-67
2021/10/08 08:30:08;;;;;;;124.85;31.83;;;;;;;;;;5010788;28;20413;-67
2021/10/08 08:32:35;;;;;;;84.40;31.95;;;;;;;;;;5012832;28;20041;-67
2021/10/08 08:35:01;;;;;;;75.88;30.58;;;;;;;;;;5012744;28;20041;-67
2021/10/08 08:37:27;;;;;;;85.85;35.55;;;;;;;;;;5010666;28;20046;-68
2021/10/08 08:39:53;;;;;;;93.55;33.35;;;;;;;;;;5012213;28;20053;-67
2021/10/08 08:42:20;;;;;;;87.53;34.50;;;;;;;;;;5012471;28;20050;-74
2021/10/08 08:44:47;;;;;;;91.53;36.67;;;;;;;;;;5010895;28;20042;-72
2021/10/08 08:47:15;;;;;;;78.13;33.83;;;;;;;;;;5010685;28;20054;-72
2021/10/08 08:49:41;;;;;;;106.47;35.10;;;;;;;;;;5010275;28;20058;-72
2021/10/08 08:52:08;;;;;;;89.75;36.80;;;;;;;;;;5010915;28;20048;-72
2021/10/08 08:54:34;;;;;;;82.20;34.15;;;;;;;;;;5010949;28;20050;-72
2021/10/08 08:57:00;;;;;;;84.70;36.78;;;;;;;;;;5010135;28;20057;-73
2021/10/08 08:59:27;;;;;;;72.88;34.17;;;;;;;;;;5010779;28;20096;-72
2021/10/08 09:02:03;;;;;;;67.38;34.13;;;;;;;;;;4994523;28;20373;-72
2021/10/08 09:04:30;;;;;;;67.90;34.22;;;;;;;;;;5009972;28;20133;-71
2021/10/08 09:06:57;;;;;;;66.35;33.40;;;;;;;;;;5010730;28;20477;-71
2021/10/08 09:09:24;;;;;;;66.60;33.83;;;;;;;;;;5010996;28;20057;-71
2021/10/08 09:11:51;;;;;;;68.00;34.05;;;;;;;;;;5011234;28;20038;-71
2021/10/08 09:14:17;;;;;;;66.50;33.80;;;;;;;;;;5011999;28;20399;-71
2021/10/08 09:17:02;;;;;;;68.78;33.70;;;;;;;;;;5010762;28;20049;-71
2021/10/08 09:19:46;;;;;;;65.28;33.83;;;;;;;;;;4993759;28;20053;-71
2021/10/08 09:22:17;;;;;;;66.30;33.20;;;;;;;;;;5010617;28;20054;-71
2021/10/08 09:24:43;;;;;;;66.38;33.70;;;;;;;;;;5012125;28;20038;-71
2021/10/08 09:27:10;;;;;;;57.90;31.95;;;;;;;;;;5009531;28;20061;-71
2021/10/08 09:29:36;;;;;;;62.63;33.85;;;;;;;;;;5010447;28;20509;-71
2021/10/08 09:32:02;;;;;;;64.43;32.67;;;;;;;;;;5009515;28;20046;-71
2021/10/08 09:34:30;;;;;;;65.28;33.53;;;;;;;;;;5006555;28;20045;-71
2021/10/08 09:37:05;;;;;;;66.43;34.15;;;;;;;;;;5009572;28;20042;-71
2021/10/08 09:39:33;;;;;;;61.47;31.63;;;;;;;;;;5009562;28;20045;-71
2021/10/08 09:42:02;;;;;;;59.53;31.80;;;;;;;;;;5010446;28;20042;-71
2021/10/08 09:44:29;;;;;;;69.43;34.38;;;;;;;;;;5009409;28;20052;-71
2021/10/08 09:47:13;;;;;;;62.13;33.25;;;;;;;;;;5011069;28;20097;-72
2021/10/08 09:49:40;;;;;;;57.65;30.40;;;;;;;;;;5009817;28;20053;-72
2021/10/08 09:52:19;;;;;;;53.75;28.63;;;;;;;;;;5010564;28;20446;-72
2021/10/08 09:54:48;;;;;;;55.22;30.08;;;;;;;;;;5010535;28;20124;-71
2021/10/08 09:57:14;;;;;;;48.80;27.58;;;;;;;;;;5006276;28;20058;-71
2021/10/08 09:59:40;;;;;;;49.42;28.40;;;;;;;;;;5008963;28;20097;-71
2021/10/08 10:02:07;;;;;;;53.92;29.08;;;;;;;;;;5009618;28;20365;-71
2021/10/08 10:04:46;;;;;;;52.83;29.55;;;;;;;;;;5007331;28;20046;-72
2021/10/08 10:07:14;;;;;;;47.55;27.27;;;;;;;;;;5010575;28;20038;-71
2021/10/08 10:09:40;;;;;;;44.75;28.05;;;;;;;;;;5010949;28;20041;-71
2021/10/08 10:12:07;;;;;;;49.65;28.48;;;;;;;;;;4993385;28;20044;-71
2021/10/08 10:14:34;;;;;;;43.47;26.73;;;;;;;;;;5025116;28;20042;-71
2021/10/08 10:17:02;;;;;;;45.55;28.63;;;;;;;;;;5009616;28;20072;-72
2021/10/08 10:19:29;;;;;;;47.63;29.38;;;;;;;;;;5009975;28;20065;-72
2021/10/08 10:21:56;;;;;;;50.20;28.70;;;;;;;;;;5008875;28;20116;-71
2021/10/08 10:24:23;;;;;;;44.30;27.02;;;;;;;;;;5009706;28;20385;-72
2021/10/08 10:26:49;;;;;;;45.97;28.90;;;;;;;;;;5009733;28;20056;-72
2021/10/08 10:29:17;;;;;;;40.53;27.45;;;;;;;;;;4992745;28;20054;-72
2021/10/08 10:31:44;;;;;;;41.25;27.10;;;;;;;;;;5006959;28;20058;-71
2021/10/08 10:34:10;;;;;;;45.08;30.73;;;;;;;;;;5009624;28;20046;-72
2021/10/08 10:36:39;;;;;;;45.30;28.88;;;;;;;;;;5009233;28;20497;-73
2021/10/08 10:39:13;;;;;;;49.50;31.75;;;;;;;;;;5010627;28;20502;-83
2021/10/08 10:41:40;;;;;;;50.90;30.52;;;;;;;;;;5009851;28;20061;-74
2021/10/08 10:44:12;;;;;;;46.90;31.20;;;;;;;;;;5008519;28;20484;-74
2021/10/08 10:51:58;;;;;;;50.40;32.75;;;;;;;;;;5009430;28;20049;-74
2021/10/08 10:54:37;;;;;;;46.97;33.17;;;;;;;;;;5009258;28;20054;-74
2021/10/08 10:57:05;;;;;;;45.92;31.60;;;;;;;;;;5007799;28;20056;-74
2021/10/08 10:59:32;;;;;;;47.95;32.88;;;;;;;;;;4992391;28;20524;-74
2021/10/08 11:02:06;;;;;;;43.75;30.85;;;;;;;;;;4993438;28;20053;-74
2021/10/08 11:04:34;;;;;;;48.42;33.17;;;;;;;;;;5005436;28;20073;-74
2021/10/08 11:07:04;;;;;;;40.63;32.20;;;;;;;;;;5009531;28;20117;-74
2021/10/08 11:09:30;;;;;;;42.15;30.52;;;;;;;;;;4992926;28;20459;-74
2021/10/08 11:12:15;;;;;;;41.17;30.35;;;;;;;;;;4991069;28;20046;-74
2021/10/08 11:14:41;;;;;;;42.13;30.33;;;;;;;;;;4995444;28;20452;-74
2021/10/08 11:17:28;;;;;;;38.35;30.35;;;;;;;;;;5013629;28;20064;-74
2021/10/08 11:19:54;;;;;;;38.97;29.60;;;;;;;;;;4996169;28;20085;-74
2021/10/08 11:22:40;;;;;;;41.22;32.67;;;;;;;;;;4992664;28;20038;-74
2021/10/08 11:25:07;;;;;;;32.42;26.65;;;;;;;;;;4992514;28;20133;-74
2021/10/08 11:27:34;;;;;;;32.20;27.50;;;;;;;;;;4995163;28;20065;-74
2021/10/08 11:30:04;;;;;;;37.25;28.95;;;;;;;;;;4990511;28;20100;-74
2021/10/08 11:32:34;;;;;;;36.63;30.52;;;;;;;;;;5009448;28;20085;-74
2021/10/08 11:35:01;;;;;;;32.85;27.63;;;;;;;;;;5011664;28;20072;-72
2021/10/08 11:37:30;;;;;;;35.75;26.30;;;;;;;;;;5008778;28;20104;-72
2021/10/08 11:39:57;;;;;;;31.05;23.98;;;;;;;;;;5008596;28;20053;-72
2021/10/08 11:42:26;;;;;;;30.60;23.83;;;;;;;;;;5005642;28;20072;-72
2021/10/08 11:47:26;;;;;;;29.88;24.52;;;;;;;;;;4986179;28;20046;-76
2021/10/08 11:50:13;;;;;;;30.90;24.10;;;;;;;;;;4991127;28;20449;-76
2021/10/08 11:52:40;;;;;;;29.52;25.33;;;;;;;;;;4990063;28;20042;-76
2021/10/08 11:55:07;;;;;;;33.22;24.65;;;;;;;;;;5005857;28;20535;-76
2021/10/08 11:57:47;;;;;;;29.98;25.35;;;;;;;;;;5004349;28;20354;-76
2021/10/08 12:00:14;;;;;;;31.65;26.17;;;;;;;;;;5000348;28;20436;-76
2021/10/08 12:02:40;;;;;;;30.15;22.95;;;;;;;;;;4975941;28;20053;-73
2021/10/08 12:05:08;;;;;;;33.60;26.27;;;;;;;;;;4971761;28;20058;-73
2021/10/08 12:07:37;;;;;;;31.42;25.40;;;;;;;;;;4978645;28;20141;-72
2021/10/08 12:10:07;;;;;;;28.95;24.17;;;;;;;;;;5002926;28;20058;-73
2021/10/08 12:12:33;;;;;;;29.50;23.95;;;;;;;;;;4994647;28;20049;-72
2021/10/08 12:14:59;;;;;;;32.83;20.63;;;;;;;;;;5005880;28;20527;-73
2021/10/08 12:17:26;;;;;;;26.88;21.23;;;;;;;;;;5009530;28;20037;-72
2021/10/08 12:19:52;;;;;;;27.25;22.58;;;;;;;;;;5007139;28;20042;-73
2021/10/08 12:22:22;;;;;;;25.80;21.75;;;;;;;;;;4992820;28;20049;-73
2021/10/08 12:24:49;;;;;;;29.40;22.90;;;;;;;;;;4994580;28;20045;-73
2021/10/08 12:27:15;;;;;;;29.98;22.30;;;;;;;;;;5009975;28;20065;-72
2021/10/08 12:29:42;;;;;;;26.23;22.45;;;;;;;;;;4992684;28;20577;-73
2021/10/08 12:32:10;;;;;;;24.73;19.90;;;;;;;;;;4991609;28;20038;-73
2021/10/08 12:34:37;;;;;;;29.48;21.95;;;;;;;;;;5007473;28;20465;-73
2021/10/08 12:37:04;;;;;;;27.17;22.80;;;;;;;;;;4991872;28;20104;-73
2021/10/08 12:39:36;;;;;;;28.58;23.00;;;;;;;;;;4993811;28;20085;-73
2021/10/08 12:42:14;;;;;;;27.80;22.92;;;;;;;;;;4991050;28;20486;-73
2021/10/08 12:44:49;;;;;;;25.55;21.63;;;;;;;;;;4993536;28;20045;-73
2021/10/08 12:47:24;;;;;;;23.13;18.73;;;;;;;;;;4987730;28;20080;-73
2021/10/08 12:49:51;;;;;;;24.98;19.23;;;;;;;;;;5004921;28;20132;-73
2021/10/08 12:52:30;;;;;;;27.42;20.38;;;;;;;;;;4994219;28;20053;-73
2021/10/08 12:55:03;;;;;;;29.48;24.00;;;;;;;;;;4994375;28;20082;-73
2021/10/08 12:57:29;;;;;;;26.63;21.20;;;;;;;;;;4995651;28;20469;-72
2021/10/08 12:59:56;;;;;;;23.90;19.33;;;;;;;;;;5009941;28;20472;-73
2021/10/08 13:02:40;;;;;;;25.10;18.83;;;;;;;;;;5006940;28;20058;-72
2021/10/08 13:05:07;;;;;;;27.10;20.38;;;;;;;;;;5003164;28;20048;-73
2021/10/08 13:07:34;;;;;;;27.55;19.38;;;;;;;;;;5012568;28;20038;-72
2021/10/08 13:10:06;;;;;;;22.73;18.42;;;;;;;;;;5004344;28;20061;-72
2021/10/08 13:12:43;;;;;;;23.90;17.38;;;;;;;;;;5003478;28;20143;-73
2021/10/08 13:15:10;;;;;;;23.27;18.27;;;;;;;;;;5004469;28;20083;-72
2021/10/08 13:17:36;;;;;;;23.80;17.95;;;;;;;;;;4999722;28;20104;-72
2021/10/08 13:20:03;;;;;;;24.10;17.88;;;;;;;;;;5010126;28;20092;-72
2021/10/08 13:22:32;;;;;;;22.20;15.40;;;;;;;;;;5007293;28;20125;-72
2021/10/08 13:24:58;;;;;;;18.55;13.90;;;;;;;;;;5010797;28;20500;-72
2021/10/08 13:27:25;;;;;;;22.35;14.73;;;;;;;;;;5010556;28;20071;-72
2021/10/08 13:29:51;;;;;;;20.63;14.98;;;;;;;;;;5010277;28;20092;-72
2021/10/08 13:32:17;;;;;;;22.23;16.13;;;;;;;;;;5010252;28;20042;-72
2021/10/08 13:34:46;;;;;;;20.27;14.27;;;;;;;;;;5010643;28;20049;-72
2021/10/08 13:37:12;;;;;;;21.05;14.25;;;;;;;;;;5009703;28;20065;-72
2021/10/08 13:39:38;;;;;;;18.98;14.13;;;;;;;;;;5007956;28;20124;-74
2021/10/08 13:42:04;;;;;;;19.42;14.30;;;;;;;;;;5010435;28;20046;-74
2021/10/08 13:44:32;;;;;;;17.88;13.38;;;;;;;;;;5010473;28;20100;-74
2021/10/08 13:46:58;;;;;;;16.67;13.40;;;;;;;;;;5010775;28;20057;-74
2021/10/08 13:49:24;;;;;;;19.45;13.45;;;;;;;;;;5009804;28;20196;-74
2021/10/08 13:51:50;;;;;;;17.77;13.15;;;;;;;;;;5009842;28;20050;-74
2021/10/08 13:54:16;;;;;;;18.35;13.82;;;;;;;;;;5009156;28;20393;-74
2021/10/08 13:56:45;;;;;;;18.05;12.02;;;;;;;;;;5006867;28;20133;-74
2021/10/08 13:59:12;;;;;;;17.00;11.63;;;;;;;;;;5000001;28;20533;-74
2021/10/08 14:01:46;;;;;;;15.93;9.88;;;;;;;;;;5005800;28;20042;-74
2021/10/08 14:04:35;;;;;;;15.85;9.63;;;;;;;;;;5008380;28;20049;-74
2021/10/08 14:12:12;;;;;;;19.10;11.52;;;;;;;;;;5006246;28;20392;-74
2021/10/08 14:14:39;;;;;;;50.72;15.05;;;;;;;;;;4998797;28;20046;-74
2021/10/08 14:17:05;;;;;;;15.23;10.05;;;;;;;;;;5000056;28;20112;-74
2021/10/08 14:19:31;;;;;;;13.70;9.40;;;;;;;;;;5003107;28;20458;-74
2021/10/08 14:21:59;;;;;;;13.90;9.68;;;;;;;;;;5004711;28;20048;-75
2021/10/08 14:24:25;;;;;;;20.05;10.10;;;;;;;;;;5003409;28;20057;-74